createdAt,value
2023-10-14T00:02:23.026Z,17.20
2023-10-14T00:04:54.144Z,18.50
2023-10-14T00:07:26.303Z,19.30
2023-10-14T00:09:53.636Z,18.70
2023-10-14T00:12:21.438Z,18.70
2023-10-14T00:14:49.725Z,19.10
2023-10-14T00:17:19.926Z,18.20
2023-10-14T00:19:57.014Z,19.70
2023-10-14T00:22:25.394Z,18.60
2023-10-14T00:24:53.969Z,19.40
2023-10-14T00:27:20.856Z,18.70
2023-10-14T00:29:48.680Z,18.90
2023-10-14T00:32:15.363Z,20.50
2023-10-14T00:34:44.176Z,19.20
2023-10-14T00:37:11.084Z,19.40
2023-10-14T00:39:37.818Z,20.40
2023-10-14T00:42:05.287Z,19.10
2023-10-14T00:44:34.752Z,18.80
2023-10-14T00:47:07.823Z,20.70
2023-10-14T00:49:43.588Z,20.90
2023-10-14T00:52:16.440Z,19.20
2023-10-14T00:54:47.812Z,19.40
2023-10-14T01:12:36.044Z,20.40
2023-10-14T01:15:11.777Z,20.80
2023-10-14T01:17:38.521Z,21.00
2023-10-14T01:20:17.394Z,20.50
2023-10-14T01:22:44.878Z,20.10
2023-10-14T01:25:16.518Z,20.20
2023-10-14T01:27:46.193Z,19.70
2023-10-14T01:30:16.106Z,19.90
2023-10-14T01:32:49.044Z,20.20
2023-10-14T01:35:28.051Z,21.90
2023-10-14T01:37:55.748Z,21.60
2023-10-14T01:40:40.928Z,21.60
2023-10-14T01:43:08.171Z,19.70
2023-10-14T01:45:41.897Z,20.10
2023-10-14T01:48:11.615Z,21.20
2023-10-14T01:50:48.247Z,21.20
2023-10-14T01:53:19.288Z,20.60
2023-10-14T01:55:47.127Z,21.50
2023-10-14T01:58:34.193Z,20.20
2023-10-14T02:01:14.790Z,20.50
2023-10-14T02:03:46.236Z,20.60
2023-10-14T02:06:18.408Z,20.20
2023-10-14T02:08:55.102Z,22.20
2023-10-14T04:37:53.699Z,21.00
2023-10-14T04:40:38.130Z,20.10
2023-10-14T04:43:17.702Z,20.00
2023-10-14T04:45:52.441Z,20.20
2023-10-14T04:48:20.730Z,20.10
2023-10-14T04:50:47.888Z,20.10
2023-10-14T04:53:14.557Z,19.90
2023-10-14T04:55:44.508Z,20.00
2023-10-14T04:58:16.552Z,20.10
2023-10-14T05:00:44.000Z,19.80
2023-10-14T05:03:13.343Z,19.90
2023-10-14T05:05:42.710Z,19.90
2023-10-14T05:08:35.010Z,19.90
2023-10-14T05:11:17.589Z,19.00
2023-10-14T05:14:10.983Z,19.80
2023-10-14T05:22:21.177Z,19.80
2023-10-14T05:24:51.433Z,19.50
2023-10-14T05:27:18.873Z,20.90
2023-10-14T05:29:54.672Z,18.70
2023-10-14T05:32:32.561Z,18.70
2023-10-14T05:35:00.489Z,20.40
2023-10-14T05:37:27.478Z,18.60
2023-10-14T05:42:23.236Z,18.90
2023-10-14T05:44:58.833Z,20.00
2023-10-14T05:47:29.745Z,19.00
2023-10-14T05:49:56.989Z,18.50
2023-10-14T05:57:19.484Z,18.50
2023-10-14T05:59:48.876Z,18.30
2023-10-14T06:07:10.606Z,18.30
2023-10-14T06:09:45.782Z,18.10
2023-10-14T06:12:15.425Z,18.10
2023-10-14T06:14:42.700Z,17.70
2023-10-14T06:17:10.111Z,17.90
2023-10-14T06:19:38.102Z,17.70
2023-10-14T06:22:04.800Z,17.20
2023-10-14T06:24:31.543Z,19.30
2023-10-14T06:27:09.655Z,18.20
2023-10-14T06:29:36.870Z,18.30
2023-10-14T06:32:18.836Z,17.90
2023-10-14T06:34:48.726Z,17.90
2023-10-14T06:37:15.888Z,17.80
2023-10-14T06:39:43.064Z,17.20
2023-10-14T06:42:09.907Z,17.80
2023-10-14T06:44:36.531Z,17.10
2023-10-14T06:47:04.196Z,17.90
2023-10-14T06:49:33.903Z,16.90
2023-10-14T06:52:00.843Z,17.80
2023-10-14T06:54:27.626Z,17.20
2023-10-14T06:56:54.644Z,16.90
2023-10-14T06:59:21.958Z,17.60
2023-10-14T07:01:48.899Z,16.50
2023-10-14T07:04:17.866Z,16.90
2023-10-14T07:06:50.861Z,18.70
2023-10-14T07:09:24.274Z,18.80
2023-10-14T07:11:50.939Z,17.30
2023-10-14T07:14:19.424Z,17.10
2023-10-14T07:16:46.679Z,17.00
2023-10-14T07:19:13.384Z,17.10
2023-10-14T07:21:39.989Z,17.00
2023-10-14T07:24:06.881Z,17.30
2023-10-14T07:26:38.007Z,17.60
2023-10-14T07:29:06.716Z,17.00
2023-10-14T07:31:34.046Z,18.90
2023-10-14T07:34:04.366Z,19.10
2023-10-14T07:36:31.351Z,19.10
2023-10-14T07:39:03.622Z,19.00
2023-10-14T07:41:30.423Z,16.80
2023-10-14T07:43:57.047Z,17.00
2023-10-14T07:46:24.350Z,17.60
2023-10-14T07:48:54.313Z,16.80
2023-10-14T07:51:29.872Z,17.10
2023-10-14T07:53:57.581Z,17.70
2023-10-14T07:56:24.578Z,19.00
2023-10-14T07:58:54.272Z,18.10
2023-10-14T08:01:24.341Z,18.70
2023-10-14T08:03:51.381Z,17.10
2023-10-14T08:21:04.644Z,15.00
2023-10-14T08:23:31.358Z,14.90
2023-10-14T08:26:01.143Z,14.90
2023-10-14T08:28:28.416Z,14.70
2023-10-14T08:30:56.861Z,14.90
2023-10-14T08:33:24.308Z,14.90
2023-10-14T08:35:52.154Z,14.80
2023-10-14T08:38:22.791Z,15.10
2023-10-14T08:40:58.913Z,15.00
2023-10-14T08:43:32.071Z,15.50
2023-10-14T08:50:58.808Z,15.90
2023-10-14T08:55:59.042Z,16.00
2023-10-14T08:58:27.530Z,16.80
2023-10-14T09:00:55.136Z,16.20
2023-10-14T09:03:21.969Z,15.40
2023-10-14T09:05:48.649Z,15.40
2023-10-14T09:08:16.003Z,16.20
2023-10-14T09:10:43.330Z,16.20
2023-10-14T09:13:11.513Z,15.60
2023-10-14T09:15:40.470Z,15.60
2023-10-14T09:18:20.571Z,15.50
2023-10-14T09:20:57.200Z,16.10
2023-10-14T09:23:25.226Z,15.60
2023-10-14T09:25:56.890Z,16.00
2023-10-14T09:28:24.969Z,16.70
2023-10-14T09:30:52.317Z,16.40
2023-10-14T09:33:23.248Z,16.60
2023-10-14T09:35:51.257Z,16.90
2023-10-14T09:38:23.379Z,16.70
2023-10-14T09:40:58.310Z,17.20
2023-10-14T09:43:25.872Z,17.00
2023-10-14T09:45:53.343Z,16.90
2023-10-14T09:48:20.610Z,16.60
2023-10-14T09:50:48.613Z,16.70
2023-10-14T09:53:16.290Z,16.70
2023-10-14T09:55:43.801Z,16.30
2023-10-14T09:58:13.037Z,16.30
2023-10-14T10:00:40.510Z,16.40
2023-10-14T10:03:09.033Z,17.20
2023-10-14T10:05:40.450Z,16.50
2023-10-14T10:08:10.490Z,16.40
2023-10-14T10:10:37.918Z,16.20
2023-10-14T10:13:05.085Z,16.50
2023-10-14T10:15:36.495Z,16.40
2023-10-14T10:18:07.202Z,17.60
2023-10-14T10:20:37.723Z,17.00
2023-10-14T10:23:06.724Z,16.50
2023-10-14T10:25:36.401Z,16.70
2023-10-14T10:28:24.625Z,16.70
2023-10-14T10:30:51.248Z,16.70
2023-10-14T10:33:17.822Z,17.10
2023-10-14T10:36:00.662Z,17.20
2023-10-14T10:38:29.224Z,17.50
2023-10-14T10:41:14.844Z,17.50
2023-10-14T10:43:41.455Z,17.70
2023-10-14T10:46:28.087Z,17.40
2023-10-14T10:48:54.823Z,17.30
2023-10-14T10:51:22.353Z,17.40
2023-10-14T10:53:50.168Z,17.10
2023-10-14T10:56:19.661Z,17.40
2023-10-14T10:58:46.290Z,17.80
2023-10-14T11:01:13.927Z,17.30
2023-10-14T11:03:42.652Z,17.50
2023-10-14T11:06:14.540Z,16.90
2023-10-14T11:08:41.272Z,17.10
2023-10-14T11:11:08.434Z,16.80
2023-10-14T11:13:37.777Z,16.90
2023-10-14T11:16:17.190Z,16.80
2023-10-14T11:18:48.459Z,16.90
2023-10-14T11:21:19.071Z,16.10
2023-10-14T11:23:45.903Z,17.00
2023-10-14T11:26:13.340Z,16.10
2023-10-14T11:28:40.850Z,15.70
2023-10-14T11:31:10.766Z,17.70
2023-10-14T11:33:38.108Z,15.80
2023-10-14T11:36:05.524Z,16.40
2023-10-14T11:38:32.804Z,16.60
2023-10-14T11:40:59.921Z,16.40
2023-10-14T11:43:26.579Z,16.70
2023-10-14T11:45:56.310Z,16.90
2023-10-14T11:48:23.892Z,16.90
2023-10-14T11:50:54.238Z,17.00
2023-10-14T11:53:28.635Z,17.20
2023-10-14T11:55:59.842Z,17.30
2023-10-14T11:58:30.741Z,17.30
2023-10-14T12:00:57.876Z,17.20
2023-10-14T12:03:27.702Z,16.60
2023-10-14T12:06:01.261Z,17.00
2023-10-14T12:08:28.966Z,16.40
2023-10-14T12:10:56.031Z,16.10
2023-10-14T12:13:31.007Z,16.00
2023-10-14T12:16:06.569Z,17.20
2023-10-14T12:18:36.301Z,16.30
2023-10-14T12:21:06.420Z,15.50
2023-10-14T12:23:33.067Z,16.40
2023-10-14T12:26:01.648Z,16.20
2023-10-14T12:28:32.873Z,16.10
2023-10-14T12:31:00.499Z,15.90
2023-10-14T12:33:32.785Z,15.50
2023-10-14T12:36:00.758Z,16.00
2023-10-14T12:38:28.568Z,14.50
2023-10-14T12:40:55.309Z,15.70
2023-10-14T12:43:34.378Z,15.60
2023-10-14T12:46:10.925Z,15.40
2023-10-14T12:48:40.349Z,16.00
2023-10-14T12:51:13.602Z,16.20
2023-10-14T12:53:46.942Z,16.80
2023-10-14T12:56:17.791Z,17.00
2023-10-14T12:58:44.958Z,16.70
2023-10-14T13:01:18.346Z,16.90
2023-10-14T13:03:47.564Z,17.00
2023-10-14T13:06:15.267Z,16.70
2023-10-14T13:08:41.967Z,16.50
2023-10-14T13:11:08.723Z,19.40
2023-10-14T13:13:35.437Z,19.40
2023-10-14T13:16:02.477Z,18.00
2023-10-14T13:18:29.130Z,16.80
2023-10-14T13:21:00.747Z,16.70
2023-10-14T13:26:20.351Z,21.50
2023-10-14T13:36:15.287Z,25.70
2023-10-14T13:38:42.029Z,23.70
2023-10-14T13:41:09.153Z,23.40
2023-10-14T13:43:36.109Z,24.10
2023-10-14T13:46:05.347Z,23.30
2023-10-14T13:48:32.414Z,26.20
2023-10-14T13:50:59.631Z,27.90
2023-10-14T13:53:26.579Z,28.50
2023-10-14T13:55:56.628Z,27.80
2023-10-14T14:00:57.013Z,26.00
2023-10-14T14:03:30.077Z,25.30
2023-10-14T14:05:57.219Z,24.80
2023-10-14T14:08:27.159Z,24.40
2023-10-14T14:11:00.062Z,23.40
2023-10-14T14:13:27.821Z,23.60
2023-10-14T14:15:54.757Z,26.70
2023-10-14T14:18:21.589Z,27.40
2023-10-14T14:20:50.688Z,26.10
2023-10-14T14:23:19.044Z,27.30
2023-10-14T14:25:45.703Z,25.40
2023-10-14T14:28:12.472Z,24.40
2023-10-14T14:30:40.607Z,24.80
2023-10-14T14:33:09.264Z,20.60
2023-10-14T14:40:35.013Z,17.50
2023-10-14T14:45:29.323Z,19.20
2023-10-14T14:47:57.028Z,20.20
2023-10-14T14:50:25.814Z,19.60
2023-10-14T14:52:52.779Z,19.60
2023-10-14T14:55:19.566Z,18.60
2023-10-14T15:00:27.135Z,19.50
2023-10-14T15:03:00.738Z,19.10
2023-10-14T15:05:31.367Z,17.40
2023-10-14T15:07:59.350Z,17.60
2023-10-14T15:10:26.059Z,18.40
2023-10-14T15:15:22.828Z,16.30
2023-10-14T15:20:19.189Z,20.40
2023-10-14T15:22:46.748Z,20.40
2023-10-14T15:25:14.545Z,20.20
2023-10-14T15:27:44.059Z,19.40
2023-10-14T15:30:14.413Z,18.50
2023-10-14T15:32:45.204Z,17.20
2023-10-14T15:35:14.532Z,16.50
2023-10-14T15:37:42.866Z,16.30
2023-10-14T15:40:09.975Z,16.30
2023-10-14T15:42:36.988Z,15.90
2023-10-14T15:47:40.235Z,15.50
2023-10-14T15:52:59.107Z,14.80
2023-10-14T15:55:28.416Z,15.50
2023-10-14T15:58:05.758Z,15.00
2023-10-14T16:00:35.595Z,15.10
2023-10-14T16:03:03.695Z,14.70
2023-10-14T16:05:34.937Z,14.50
2023-10-14T16:08:02.225Z,14.30
2023-10-14T16:10:32.068Z,13.80
2023-10-14T16:12:59.726Z,14.60
2023-10-14T16:15:30.661Z,15.20
2023-10-14T16:18:01.646Z,14.40
2023-10-14T16:22:56.525Z,13.90
2023-10-14T16:25:23.535Z,14.50
2023-10-14T16:27:50.990Z,13.80
2023-10-14T16:30:18.431Z,13.60
2023-10-14T16:32:45.974Z,13.60
2023-10-14T16:35:15.137Z,12.70
2023-10-14T16:37:42.393Z,13.40
2023-10-14T16:40:19.458Z,13.60
2023-10-14T16:42:50.298Z,13.20
2023-10-14T16:47:45.542Z,13.10
2023-10-14T16:50:16.416Z,13.10
2023-10-14T16:52:43.721Z,12.70
2023-10-14T16:55:12.871Z,13.20
2023-10-14T16:57:46.757Z,12.70
2023-10-14T17:00:14.105Z,12.70
2023-10-14T17:02:41.701Z,12.50
2023-10-14T17:07:35.696Z,12.50
2023-10-14T17:10:02.462Z,12.80
2023-10-14T17:12:29.343Z,12.90
2023-10-14T17:14:56.045Z,12.60
2023-10-14T17:17:22.802Z,12.50
2023-10-14T17:19:49.516Z,12.60
2023-10-14T17:22:16.870Z,12.50
2023-10-14T17:27:11.694Z,13.40
2023-10-14T17:29:39.776Z,11.90
2023-10-14T17:32:06.531Z,12.00
2023-10-14T17:37:00.595Z,12.00
2023-10-14T17:39:27.915Z,11.70
2023-10-14T17:41:54.711Z,12.40
2023-10-14T17:46:48.584Z,11.70
2023-10-14T17:49:15.411Z,12.60
2023-10-14T17:51:42.692Z,11.70
2023-10-14T17:54:09.379Z,11.50
2023-10-14T17:56:36.054Z,12.60
2023-10-14T17:59:02.779Z,12.20
2023-10-14T18:01:29.780Z,11.00
2023-10-14T18:03:57.338Z,10.90
2023-10-14T18:06:24.948Z,12.60
2023-10-14T18:08:53.394Z,12.50
2023-10-14T18:11:20.112Z,11.30
2023-10-14T18:13:46.855Z,11.20
2023-10-14T18:16:13.577Z,12.20
2023-10-14T18:18:40.869Z,9.80
2023-10-14T18:21:09.029Z,10.90
2023-10-14T18:23:38.455Z,11.00
2023-10-14T18:26:09.011Z,10.80
2023-10-14T18:28:36.396Z,11.10
2023-10-14T18:31:03.193Z,11.00
2023-10-14T18:33:32.238Z,10.60
2023-10-14T18:36:05.789Z,10.40
2023-10-14T18:38:34.399Z,10.80
2023-10-14T18:41:02.914Z,11.80
2023-10-14T18:43:31.286Z,12.30
2023-10-14T18:45:58.052Z,10.70
2023-10-14T18:58:19.329Z,10.20
2023-10-14T19:00:47.941Z,10.00
2023-10-14T19:03:15.497Z,9.80
2023-10-14T19:05:42.519Z,9.60
2023-10-14T19:10:42.159Z,9.70
2023-10-14T19:13:09.631Z,9.50
2023-10-14T19:15:37.066Z,9.30
2023-10-14T19:18:04.766Z,9.50
2023-10-14T19:20:32.182Z,9.20
2023-10-14T19:23:06.922Z,9.00
2023-10-14T19:25:33.689Z,9.40
2023-10-14T19:28:00.356Z,9.30
2023-10-14T19:30:28.202Z,9.30
2023-10-14T19:32:54.848Z,9.10
2023-10-14T19:35:21.525Z,9.20
2023-10-14T19:37:48.291Z,8.80
2023-10-14T19:40:16.059Z,9.50
2023-10-14T19:42:43.773Z,9.50
2023-10-14T19:45:11.461Z,9.90
2023-10-14T19:47:41.612Z,9.30
2023-10-14T19:50:13.168Z,9.30
2023-10-14T19:52:40.640Z,9.30
2023-10-14T19:55:22.875Z,9.50
2023-10-14T19:57:57.770Z,9.60
2023-10-14T20:00:27.883Z,9.60
2023-10-14T20:02:56.288Z,9.70
2023-10-14T20:05:23.878Z,9.70
2023-10-14T20:07:51.633Z,9.80
2023-10-14T20:10:19.926Z,9.70
2023-10-14T20:12:47.518Z,9.70
2023-10-14T20:15:14.228Z,9.50
2023-10-14T20:17:41.280Z,9.30
2023-10-14T20:20:10.115Z,8.80
2023-10-14T20:22:36.810Z,8.80
2023-10-14T20:52:13.472Z,8.70
